Time;durP1;ratioP1;P1;durP2;ratioP2;P2;SDS_P1;SDS_P2;PMS_P1;PMS_P2;Temp;Humidity;BMP_temperature;BMP_pressure;BME280_temperature;BME280_humidity;BME280_pressure;Samples;Min_cycle;Max_cycle;Signal;HPM_P1;HPM_P2
2023/12/17 00:01:10;;;;;;;21.00;10.57;;;;;;;;;;5039023;28;20435;-69
2023/12/17 00:03:37;;;;;;;20.83;10.80;;;;;;;;;;5040935;28;20434;-69
2023/12/17 00:06:05;;;;;;;19.00;10.40;;;;;;;;;;5039016;28;20520;-69
2023/12/17 00:08:32;;;;;;;22.42;10.95;;;;;;;;;;5045311;28;20425;-69
2023/12/17 00:10:59;;;;;;;21.50;11.75;;;;;;;;;;5041997;28;20854;-69
2023/12/17 00:13:26;;;;;;;24.33;12.13;;;;;;;;;;5039882;28;20479;-69
2023/12/17 00:15:54;;;;;;;18.60;11.30;;;;;;;;;;5043507;28;20444;-69
2023/12/17 00:18:21;;;;;;;24.77;11.97;;;;;;;;;;5037791;28;20443;-69
2023/12/17 00:20:49;;;;;;;27.45;12.40;;;;;;;;;;5038955;28;20448;-69
2023/12/17 00:23:16;;;;;;;31.23;12.53;;;;;;;;;;5043204;28;20446;-69
2023/12/17 00:25:43;;;;;;;23.15;12.02;;;;;;;;;;5052459;28;20490;-70
2023/12/17 00:28:11;;;;;;;25.10;12.73;;;;;;;;;;5044703;28;20478;-69
2023/12/17 00:30:38;;;;;;;23.35;12.35;;;;;;;;;;5048000;28;20479;-69
2023/12/17 00:33:06;;;;;;;28.92;13.07;;;;;;;;;;5048326;28;20444;-69
2023/12/17 00:35:33;;;;;;;26.67;11.73;;;;;;;;;;5038155;28;20487;-69
2023/12/17 00:38:00;;;;;;;27.00;12.02;;;;;;;;;;5035422;28;20435;-69
2023/12/17 00:40:27;;;;;;;21.75;11.45;;;;;;;;;;5043112;28;20487;-70
2023/12/17 00:42:55;;;;;;;24.42;11.80;;;;;;;;;;5038363;28;20423;-70
2023/12/17 00:45:22;;;;;;;24.80;12.27;;;;;;;;;;5036051;28;20494;-70
2023/12/17 00:47:49;;;;;;;26.70;11.90;;;;;;;;;;5041389;28;20433;-70
2023/12/17 00:50:16;;;;;;;21.17;12.15;;;;;;;;;;5047129;28;20460;-70
2023/12/17 00:52:43;;;;;;;31.67;12.73;;;;;;;;;;5038143;28;20512;-69
2023/12/17 00:55:11;;;;;;;27.58;12.80;;;;;;;;;;5045034;28;20437;-70
2023/12/17 00:57:38;;;;;;;26.15;12.73;;;;;;;;;;5036730;28;20429;-69
2023/12/17 01:00:06;;;;;;;24.95;12.63;;;;;;;;;;5033459;28;20439;-70
2023/12/17 01:02:33;;;;;;;25.77;12.50;;;;;;;;;;5035343;28;20908;-70
2023/12/17 01:05:00;;;;;;;24.40;11.55;;;;;;;;;;5041607;28;20485;-70
2023/12/17 01:07:27;;;;;;;18.60;11.25;;;;;;;;;;5037087;28;20448;-70
2023/12/17 01:09:54;;;;;;;21.27;11.73;;;;;;;;;;5037084;28;20437;-70
2023/12/17 01:12:22;;;;;;;17.92;10.38;;;;;;;;;;5038854;28;20524;-70
2023/12/17 01:14:49;;;;;;;22.20;10.88;;;;;;;;;;5038597;28;20429;-70
2023/12/17 01:17:16;;;;;;;20.70;10.80;;;;;;;;;;5038343;28;20430;-71
2023/12/17 01:19:44;;;;;;;19.92;10.35;;;;;;;;;;5039031;28;20524;-70
2023/12/17 01:22:11;;;;;;;19.52;10.85;;;;;;;;;;5036565;28;20490;-70
2023/12/17 01:24:39;;;;;;;22.50;11.45;;;;;;;;;;5037092;28;20426;-70
2023/12/17 01:27:06;;;;;;;22.80;11.02;;;;;;;;;;5040651;28;20930;-70
2023/12/17 01:29:34;;;;;;;19.38;10.57;;;;;;;;;;5047270;28;20435;-70
2023/12/17 01:32:01;;;;;;;24.50;11.60;;;;;;;;;;5040956;28;20460;-70
2023/12/17 01:34:28;;;;;;;19.55;10.60;;;;;;;;;;5038543;28;21064;-70
2023/12/17 01:36:55;;;;;;;21.63;11.23;;;;;;;;;;5042838;28;20433;-70
2023/12/17 01:39:23;;;;;;;20.00;11.15;;;;;;;;;;5038315;28;20457;-70
2023/12/17 01:41:50;;;;;;;17.73;11.05;;;;;;;;;;5039376;28;20429;-70
2023/12/17 01:44:17;;;;;;;21.60;10.80;;;;;;;;;;5033488;28;20454;-70
2023/12/17 01:46:44;;;;;;;20.58;11.07;;;;;;;;;;5038490;28;20466;-70
2023/12/17 01:49:12;;;;;;;19.15;11.18;;;;;;;;;;5035577;28;21048;-70
2023/12/17 01:51:39;;;;;;;20.33;10.75;;;;;;;;;;5038712;28;20432;-70
2023/12/17 01:54:07;;;;;;;17.83;10.40;;;;;;;;;;5040672;28;20537;-70
2023/12/17 01:56:34;;;;;;;20.25;10.73;;;;;;;;;;5038244;28;20818;-71
2023/12/17 01:59:02;;;;;;;22.08;11.02;;;;;;;;;;5035843;28;20504;-72
2023/12/17 02:01:29;;;;;;;21.48;10.93;;;;;;;;;;5038873;28;20439;-70
2023/12/17 02:03:56;;;;;;;17.13;9.97;;;;;;;;;;5041204;28;20915;-70
2023/12/17 02:06:24;;;;;;;18.45;9.73;;;;;;;;;;5044264;28;20425;-70
2023/12/17 02:08:51;;;;;;;20.63;10.10;;;;;;;;;;5037939;28;20437;-70
2023/12/17 02:11:18;;;;;;;15.45;9.85;;;;;;;;;;5040587;28;20437;-70
2023/12/17 02:13:45;;;;;;;21.45;10.40;;;;;;;;;;5038337;28;20433;-70
2023/12/17 02:16:13;;;;;;;15.48;9.70;;;;;;;;;;5041271;28;20431;-70
2023/12/17 02:18:40;;;;;;;14.90;10.00;;;;;;;;;;5042346;28;21064;-70
2023/12/17 02:21:08;;;;;;;21.80;10.20;;;;;;;;;;5048622;28;20433;-69
2023/12/17 02:23:35;;;;;;;16.88;10.05;;;;;;;;;;5044290;28;20946;-70
2023/12/17 02:26:03;;;;;;;16.25;9.65;;;;;;;;;;5046192;28;20421;-70
2023/12/17 02:28:30;;;;;;;19.42;10.25;;;;;;;;;;5040116;28;20440;-70
2023/12/17 02:30:58;;;;;;;18.27;10.48;;;;;;;;;;5042232;28;20538;-70
2023/12/17 02:33:25;;;;;;;17.63;9.82;;;;;;;;;;5040204;28;20500;-70
2023/12/17 02:35:52;;;;;;;21.20;10.82;;;;;;;;;;5037418;28;20425;-69
2023/12/17 02:38:20;;;;;;;18.77;9.70;;;;;;;;;;5035283;28;20441;-69
2023/12/17 02:40:47;;;;;;;18.20;9.63;;;;;;;;;;5041869;28;20426;-69
2023/12/17 02:43:14;;;;;;;17.48;9.68;;;;;;;;;;5035960;28;20476;-69
2023/12/17 02:45:41;;;;;;;16.40;9.43;;;;;;;;;;5043524;28;20513;-70
2023/12/17 02:48:08;;;;;;;15.90;9.23;;;;;;;;;;5035044;28;20526;-69
2023/12/17 02:50:36;;;;;;;19.00;9.65;;;;;;;;;;5042987;28;20428;-69
2023/12/17 02:53:03;;;;;;;19.30;9.63;;;;;;;;;;5047979;28;20429;-69
2023/12/17 02:55:30;;;;;;;15.82;10.13;;;;;;;;;;5048401;28;20435;-69
2023/12/17 02:57:57;;;;;;;17.45;9.98;;;;;;;;;;5048341;28;20455;-69
2023/12/17 03:00:24;;;;;;;19.30;10.45;;;;;;;;;;5043276;28;20475;-69
2023/12/17 03:02:52;;;;;;;17.60;10.10;;;;;;;;;;5041620;28;20970;-69
2023/12/17 03:05:19;;;;;;;15.20;9.27;;;;;;;;;;5037745;28;20429;-69
2023/12/17 03:07:47;;;;;;;17.85;9.90;;;;;;;;;;5045078;28;20436;-69
2023/12/17 03:10:14;;;;;;;16.80;9.87;;;;;;;;;;5043899;28;20457;-68
2023/12/17 03:12:41;;;;;;;14.73;9.90;;;;;;;;;;5042656;28;20520;-69
2023/12/17 03:15:08;;;;;;;18.48;10.05;;;;;;;;;;5038557;28;20433;-69
2023/12/17 03:17:36;;;;;;;18.08;10.43;;;;;;;;;;5029834;28;20484;-69
2023/12/17 03:20:07;;;;;;;20.13;10.90;;;;;;;;;;5039894;28;20528;-67
2023/12/17 03:22:34;;;;;;;17.33;10.38;;;;;;;;;;5036952;28;20891;-68
2023/12/17 03:25:01;;;;;;;16.00;10.25;;;;;;;;;;5035538;28;20549;-68
2023/12/17 03:27:28;;;;;;;17.00;10.38;;;;;;;;;;5037363;28;20965;-69
2023/12/17 03:29:55;;;;;;;18.80;9.55;;;;;;;;;;5032285;28;20458;-68
2023/12/17 03:32:23;;;;;;;21.40;11.03;;;;;;;;;;5035689;28;20436;-69
2023/12/17 03:34:51;;;;;;;18.05;10.93;;;;;;;;;;5034115;28;20533;-69
2023/12/17 03:37:18;;;;;;;19.65;10.73;;;;;;;;;;5038037;28;20899;-70
2023/12/17 03:39:45;;;;;;;20.63;10.80;;;;;;;;;;5038175;28;20456;-68
2023/12/17 03:42:13;;;;;;;18.63;10.70;;;;;;;;;;5039303;28;20870;-68
2023/12/17 03:44:40;;;;;;;21.20;10.73;;;;;;;;;;5030961;28;20461;-68
2023/12/17 03:47:07;;;;;;;16.10;9.73;;;;;;;;;;5039221;28;20425;-68
2023/12/17 03:49:34;;;;;;;18.23;10.55;;;;;;;;;;5039724;28;20515;-68
2023/12/17 03:52:03;;;;;;;19.77;10.10;;;;;;;;;;5036666;28;20449;-68
2023/12/17 03:54:30;;;;;;;18.23;10.30;;;;;;;;;;5043909;28;20468;-68
2023/12/17 03:56:58;;;;;;;19.48;10.57;;;;;;;;;;5034234;28;20458;-68
2023/12/17 03:59:25;;;;;;;17.63;10.35;;;;;;;;;;5044841;28;20426;-69
2023/12/17 04:01:52;;;;;;;20.42;11.10;;;;;;;;;;5039708;28;20519;-68
2023/12/17 04:04:20;;;;;;;16.88;10.43;;;;;;;;;;5035259;28;20425;-68
2023/12/17 04:06:47;;;;;;;20.08;10.43;;;;;;;;;;5042541;28;20433;-68
2023/12/17 04:09:14;;;;;;;18.10;10.30;;;;;;;;;;5030412;28;20481;-69
2023/12/17 04:11:41;;;;;;;15.57;9.67;;;;;;;;;;5041381;28;20816;-69
2023/12/17 04:14:08;;;;;;;15.90;9.68;;;;;;;;;;5044804;28;20978;-69
2023/12/17 04:16:36;;;;;;;18.80;9.70;;;;;;;;;;5037344;28;20522;-68
2023/12/17 04:19:03;;;;;;;16.85;9.02;;;;;;;;;;5037592;28;20433;-68
2023/12/17 04:21:31;;;;;;;19.17;10.40;;;;;;;;;;5028959;28;20431;-68
2023/12/17 04:23:58;;;;;;;18.25;10.18;;;;;;;;;;5038301;28;20883;-69
2023/12/17 04:26:26;;;;;;;17.27;9.98;;;;;;;;;;5036290;28;20455;-69
2023/12/17 04:28:53;;;;;;;15.47;9.53;;;;;;;;;;5042935;28;20442;-70
2023/12/17 04:31:20;;;;;;;17.50;9.90;;;;;;;;;;5033875;28;20426;-68
2023/12/17 04:33:47;;;;;;;15.13;9.48;;;;;;;;;;5040161;28;20460;-69
2023/12/17 04:36:15;;;;;;;14.05;9.60;;;;;;;;;;5034209;28;20440;-69
2023/12/17 04:38:45;;;;;;;15.90;9.77;;;;;;;;;;5035685;28;20489;-69
2023/12/17 04:41:12;;;;;;;18.30;10.02;;;;;;;;;;5040383;28;20433;-68
2023/12/17 04:43:39;;;;;;;18.87;10.37;;;;;;;;;;5033030;28;20504;-69
2023/12/17 04:46:07;;;;;;;16.58;10.43;;;;;;;;;;5043042;28;20425;-69
2023/12/17 04:48:34;;;;;;;17.92;10.18;;;;;;;;;;5032025;28;20430;-69
2023/12/17 04:51:01;;;;;;;18.58;10.10;;;;;;;;;;5038763;28;20561;-69
2023/12/17 04:53:29;;;;;;;17.08;10.38;;;;;;;;;;5032943;28;20490;-69
2023/12/17 04:55:56;;;;;;;16.50;10.63;;;;;;;;;;5036973;28;20917;-69
2023/12/17 04:58:24;;;;;;;18.45;10.77;;;;;;;;;;5042167;28;20842;-68
2023/12/17 05:00:51;;;;;;;16.05;10.07;;;;;;;;;;5036605;28;20450;-68
2023/12/17 05:03:18;;;;;;;20.98;10.60;;;;;;;;;;5043197;28;20622;-67
2023/12/17 05:05:45;;;;;;;18.03;11.07;;;;;;;;;;5037104;28;20433;-69
2023/12/17 05:08:13;;;;;;;17.52;11.18;;;;;;;;;;5028198;28;20435;-69
2023/12/17 05:10:41;;;;;;;18.85;11.75;;;;;;;;;;5031776;28;20435;-68
2023/12/17 05:13:09;;;;;;;20.08;11.40;;;;;;;;;;5044451;28;20436;-68
2023/12/17 05:15:36;;;;;;;18.55;11.70;;;;;;;;;;5033991;28;21031;-69
2023/12/17 05:18:03;;;;;;;20.83;11.75;;;;;;;;;;5044172;28;20926;-69
2023/12/17 05:20:31;;;;;;;19.08;11.73;;;;;;;;;;5036541;28;20430;-68
2023/12/17 05:22:58;;;;;;;18.75;11.40;;;;;;;;;;5038766;28;20434;-69
2023/12/17 05:25:25;;;;;;;22.27;11.82;;;;;;;;;;5045185;28;20430;-69
2023/12/17 05:27:52;;;;;;;18.17;11.68;;;;;;;;;;5036519;28;20481;-69
2023/12/17 05:30:19;;;;;;;20.75;11.65;;;;;;;;;;5029987;28;20978;-69
2023/12/17 05:32:46;;;;;;;22.17;11.90;;;;;;;;;;5039110;28;20516;-69
2023/12/17 05:35:14;;;;;;;21.73;11.82;;;;;;;;;;5036965;28;20444;-69
2023/12/17 05:37:41;;;;;;;18.17;11.20;;;;;;;;;;5038899;28;20439;-69
2023/12/17 05:40:08;;;;;;;18.13;11.40;;;;;;;;;;5044337;28;20433;-69
2023/12/17 05:42:36;;;;;;;17.33;11.20;;;;;;;;;;5036427;28;20438;-69
2023/12/17 05:45:04;;;;;;;21.00;12.20;;;;;;;;;;5040661;28;20454;-69
2023/12/17 05:47:31;;;;;;;19.70;11.63;;;;;;;;;;5039254;28;20461;-69
2023/12/17 05:49:59;;;;;;;18.65;11.77;;;;;;;;;;5040879;28;20427;-69
2023/12/17 05:52:29;;;;;;;20.58;11.90;;;;;;;;;;5040062;28;20440;-68
2023/12/17 05:54:58;;;;;;;20.57;12.10;;;;;;;;;;5043703;28;20489;-68
2023/12/17 05:57:25;;;;;;;19.60;11.57;;;;;;;;;;5044528;28;20429;-70
2023/12/17 05:59:53;;;;;;;21.48;12.02;;;;;;;;;;5045647;28;20469;-68
2023/12/17 06:02:21;;;;;;;20.35;11.60;;;;;;;;;;5041851;28;20433;-68
2023/12/17 06:04:48;;;;;;;20.42;11.70;;;;;;;;;;5039125;28;20926;-68
2023/12/17 06:07:17;;;;;;;18.50;11.57;;;;;;;;;;5043945;28;20514;-69
2023/12/17 06:09:44;;;;;;;19.00;11.43;;;;;;;;;;5038085;28;20961;-69
2023/12/17 06:12:11;;;;;;;20.00;11.82;;;;;;;;;;5037055;28;20908;-68
2023/12/17 06:14:40;;;;;;;19.50;11.65;;;;;;;;;;5043768;28;20431;-69
2023/12/17 06:17:07;;;;;;;19.17;11.15;;;;;;;;;;5037100;28;20437;-69
2023/12/17 06:19:36;;;;;;;18.80;11.18;;;;;;;;;;5041046;28;20440;-69
2023/12/17 06:22:04;;;;;;;21.23;11.40;;;;;;;;;;5034706;28;20467;-70
2023/12/17 06:24:31;;;;;;;21.17;11.70;;;;;;;;;;5040388;28;20441;-68
2023/12/17 06:26:58;;;;;;;22.98;12.10;;;;;;;;;;5040741;28;20439;-68
2023/12/17 06:29:25;;;;;;;22.67;11.90;;;;;;;;;;5039091;28;20439;-69
2023/12/17 06:31:53;;;;;;;17.73;11.73;;;;;;;;;;5042215;28;20908;-69
2023/12/17 06:34:20;;;;;;;18.85;11.52;;;;;;;;;;5035376;28;20433;-69
2023/12/17 06:36:47;;;;;;;18.65;11.13;;;;;;;;;;5036310;28;20561;-68
2023/12/17 06:39:14;;;;;;;18.92;11.48;;;;;;;;;;5037603;28;20916;-69
2023/12/17 06:41:44;;;;;;;20.42;12.40;;;;;;;;;;5039410;28;20488;-68
2023/12/17 06:44:12;;;;;;;19.83;11.77;;;;;;;;;;5040115;28;20517;-69
2023/12/17 06:46:39;;;;;;;22.55;11.88;;;;;;;;;;5035045;28;20480;-69
2023/12/17 06:49:07;;;;;;;22.33;12.25;;;;;;;;;;5040731;28;20421;-67
2023/12/17 06:51:38;;;;;;;25.40;12.52;;;;;;;;;;5030309;28;20496;-67
2023/12/17 06:54:05;;;;;;;23.65;12.25;;;;;;;;;;5035285;28;20510;-68
2023/12/17 06:56:33;;;;;;;22.85;12.18;;;;;;;;;;5030927;28;20431;-68
2023/12/17 06:59:00;;;;;;;24.55;12.55;;;;;;;;;;5042750;28;20448;-70
2023/12/17 07:01:27;;;;;;;24.33;12.38;;;;;;;;;;5037431;28;20486;-70
2023/12/17 07:03:54;;;;;;;25.80;13.07;;;;;;;;;;5036606;28;20504;-68
2023/12/17 07:06:22;;;;;;;29.33;13.02;;;;;;;;;;5040904;28;20460;-68
2023/12/17 07:08:50;;;;;;;30.50;14.18;;;;;;;;;;5040340;28;20516;-71
2023/12/17 07:11:18;;;;;;;37.83;15.13;;;;;;;;;;5037898;28;20438;-67
2023/12/17 07:13:45;;;;;;;35.80;15.65;;;;;;;;;;5035779;28;20504;-68
2023/12/17 07:16:22;;;;;;;37.75;15.77;;;;;;;;;;5038024;28;20457;-67
2023/12/17 07:18:49;;;;;;;41.78;15.82;;;;;;;;;;5037914;28;20444;-68
2023/12/17 07:21:17;;;;;;;40.25;16.20;;;;;;;;;;5045709;28;20425;-67
2023/12/17 07:23:44;;;;;;;44.33;16.67;;;;;;;;;;5038180;28;20518;-67
2023/12/17 07:26:11;;;;;;;37.72;15.63;;;;;;;;;;5045965;28;20803;-67
2023/12/17 07:28:38;;;;;;;39.47;16.25;;;;;;;;;;5037118;28;20453;-67
2023/12/17 07:31:05;;;;;;;53.30;16.98;;;;;;;;;;5037022;28;20917;-68
2023/12/17 07:33:33;;;;;;;45.60;16.50;;;;;;;;;;5034993;28;20429;-73
2023/12/17 07:36:00;;;;;;;45.53;16.45;;;;;;;;;;5037032;28;20437;-68
2023/12/17 07:38:27;;;;;;;56.88;17.17;;;;;;;;;;5034092;28;20439;-68
2023/12/17 07:40:54;;;;;;;52.45;16.88;;;;;;;;;;5036758;28;20437;-68
2023/12/17 07:43:21;;;;;;;49.80;17.05;;;;;;;;;;5039956;28;20437;-68
2023/12/17 07:45:49;;;;;;;56.53;16.95;;;;;;;;;;5043163;28;20435;-68
2023/12/17 07:48:16;;;;;;;48.95;16.70;;;;;;;;;;5037608;28;20425;-68
2023/12/17 07:50:44;;;;;;;52.30;15.88;;;;;;;;;;5038673;28;20515;-68
2023/12/17 07:53:13;;;;;;;46.55;15.57;;;;;;;;;;5043642;28;21000;-68
2023/12/17 07:55:40;;;;;;;50.65;15.02;;;;;;;;;;5035071;28;20464;-68
2023/12/17 07:58:08;;;;;;;50.87;14.57;;;;;;;;;;5041395;28;20428;-68
2023/12/17 08:00:35;;;;;;;43.55;15.82;;;;;;;;;;5039496;28;20457;-68
2023/12/17 08:03:02;;;;;;;41.92;14.75;;;;;;;;;;5039380;28;20430;-68
2023/12/17 08:05:30;;;;;;;41.75;14.85;;;;;;;;;;5036582;28;20477;-68
2023/12/17 08:07:57;;;;;;;45.65;15.75;;;;;;;;;;5036316;28;20433;-68
2023/12/17 08:10:24;;;;;;;57.13;14.98;;;;;;;;;;5034984;28;20911;-68
2023/12/17 08:12:51;;;;;;;45.73;14.50;;;;;;;;;;5040729;28;20430;-68
2023/12/17 08:15:18;;;;;;;48.60;15.43;;;;;;;;;;5037497;28;20578;-68
2023/12/17 08:17:46;;;;;;;58.75;15.68;;;;;;;;;;5036804;28;20532;-68
2023/12/17 08:20:13;;;;;;;54.70;14.43;;;;;;;;;;5040063;28;21213;-68
2023/12/17 08:22:41;;;;;;;46.47;13.25;;;;;;;;;;5038548;28;20440;-68
2023/12/17 08:25:08;;;;;;;32.73;10.63;;;;;;;;;;5032822;28;20433;-68
2023/12/17 08:27:35;;;;;;;39.55;10.40;;;;;;;;;;5031827;28;20431;-68
2023/12/17 08:30:02;;;;;;;38.15;9.75;;;;;;;;;;5043087;28;20508;-70
2023/12/17 08:32:32;;;;;;;34.25;8.15;;;;;;;;;;5040022;28;20437;-68
2023/12/17 08:35:00;;;;;;;24.15;7.43;;;;;;;;;;5034104;28;20491;-68
2023/12/17 08:37:29;;;;;;;22.40;7.80;;;;;;;;;;5042064;28;20425;-68
2023/12/17 08:39:56;;;;;;;25.90;8.90;;;;;;;;;;5032310;28;20834;-68
2023/12/17 08:42:24;;;;;;;29.40;9.15;;;;;;;;;;5042273;28;20521;-68
2023/12/17 08:44:51;;;;;;;29.92;8.90;;;;;;;;;;5037879;28;20471;-68
2023/12/17 08:47:18;;;;;;;27.10;8.93;;;;;;;;;;5046403;28;20468;-68
2023/12/17 08:49:45;;;;;;;28.77;8.20;;;;;;;;;;5045763;28;20425;-69
2023/12/17 08:52:12;;;;;;;24.23;8.48;;;;;;;;;;5040698;28;21272;-68
2023/12/17 08:54:40;;;;;;;29.15;8.98;;;;;;;;;;5038916;28;20437;-68
2023/12/17 08:57:07;;;;;;;30.93;9.03;;;;;;;;;;5044507;28;20435;-68
2023/12/17 08:59:34;;;;;;;29.27;10.00;;;;;;;;;;5044559;28;20452;-68
2023/12/17 09:02:01;;;;;;;33.53;10.48;;;;;;;;;;5040730;28;20520;-68
2023/12/17 09:04:28;;;;;;;22.02;9.40;;;;;;;;;;5045466;28;20440;-68
2023/12/17 09:06:56;;;;;;;23.27;7.80;;;;;;;;;;5043138;28;20425;-67
2023/12/17 09:09:23;;;;;;;27.90;8.13;;;;;;;;;;5043674;28;20881;-69
2023/12/17 09:11:50;;;;;;;30.48;8.32;;;;;;;;;;5044328;28;20433;-67
2023/12/17 09:14:17;;;;;;;20.98;8.02;;;;;;;;;;5048295;28;20433;-68
2023/12/17 09:16:44;;;;;;;19.45;7.93;;;;;;;;;;5039729;28;20429;-67
2023/12/17 09:19:12;;;;;;;15.10;7.85;;;;;;;;;;5044270;28;20920;-68
2023/12/17 09:21:39;;;;;;;16.20;8.82;;;;;;;;;;5040226;28;20429;-68
2023/12/17 09:24:06;;;;;;;21.70;9.70;;;;;;;;;;5044592;28;20498;-68
2023/12/17 09:26:33;;;;;;;20.95;9.00;;;;;;;;;;5037512;28;20976;-67
2023/12/17 09:29:01;;;;;;;18.17;9.50;;;;;;;;;;5039214;28;20446;-67
2023/12/17 09:31:28;;;;;;;21.15;9.23;;;;;;;;;;5034413;28;20443;-67
2023/12/17 09:33:55;;;;;;;15.60;9.10;;;;;;;;;;5042067;28;20471;-67
2023/12/17 09:36:25;;;;;;;17.58;9.15;;;;;;;;;;5032085;28;20496;-69
2023/12/17 09:38:52;;;;;;;16.33;8.70;;;;;;;;;;5040225;28;20484;-68
2023/12/17 09:41:20;;;;;;;15.93;9.23;;;;;;;;;;5039670;28;20738;-67
2023/12/17 09:43:47;;;;;;;15.95;8.07;;;;;;;;;;5035048;28;20435;-67
2023/12/17 09:46:14;;;;;;;19.20;9.93;;;;;;;;;;5044250;28;20926;-68
2023/12/17 09:48:41;;;;;;;20.50;9.68;;;;;;;;;;5040257;28;20533;-67
2023/12/17 09:51:13;;;;;;;20.42;10.30;;;;;;;;;;5045586;28;20433;-68
2023/12/17 09:53:40;;;;;;;21.20;10.90;;;;;;;;;;5040248;28;20438;-68
2023/12/17 09:56:08;;;;;;;21.35;11.25;;;;;;;;;;5041425;28;20486;-68
2023/12/17 09:58:35;;;;;;;16.90;10.52;;;;;;;;;;5039588;28;20627;-67
2023/12/17 10:01:02;;;;;;;20.55;10.48;;;;;;;;;;5040786;28;20533;-67
2023/12/17 10:03:30;;;;;;;19.63;10.10;;;;;;;;;;5033263;28;20574;-68
2023/12/17 10:05:57;;;;;;;16.45;9.15;;;;;;;;;;5036988;28;20907;-68
2023/12/17 10:08:24;;;;;;;20.08;10.48;;;;;;;;;;5036836;28;20938;-68
2023/12/17 10:10:51;;;;;;;20.15;10.63;;;;;;;;;;5025440;28;20554;-67
2023/12/17 10:13:19;;;;;;;20.23;11.05;;;;;;;;;;5040178;28;20498;-68
2023/12/17 10:15:50;;;;;;;22.47;11.43;;;;;;;;;;5034948;28;20584;-68
2023/12/17 10:18:17;;;;;;;21.88;11.95;;;;;;;;;;5032346;28;20462;-68
2023/12/17 10:20:45;;;;;;;23.65;12.63;;;;;;;;;;5045557;28;20437;-68
2023/12/17 10:23:13;;;;;;;23.20;12.55;;;;;;;;;;5037107;28;20437;-67
2023/12/17 10:25:41;;;;;;;21.35;12.00;;;;;;;;;;5032863;28;20504;-68
2023/12/17 10:28:11;;;;;;;25.45;12.60;;;;;;;;;;5043848;28;20928;-67
2023/12/17 10:30:39;;;;;;;25.52;13.32;;;;;;;;;;5043092;28;20516;-68
2023/12/17 10:33:09;;;;;;;26.00;13.25;;;;;;;;;;5038294;28;20434;-68
2023/12/17 10:35:37;;;;;;;25.95;13.63;;;;;;;;;;5039560;28;20433;-68
2023/12/17 10:38:06;;;;;;;24.13;12.95;;;;;;;;;;5040122;28;20927;-68
2023/12/17 10:40:35;;;;;;;28.13;14.80;;;;;;;;;;5037949;28;20429;-67
2023/12/17 10:43:05;;;;;;;31.13;15.25;;;;;;;;;;5037115;28;20985;-68
2023/12/17 10:45:32;;;;;;;26.75;13.93;;;;;;;;;;5040430;28;20425;-67
2023/12/17 10:48:01;;;;;;;30.88;13.82;;;;;;;;;;5044606;28;20875;-67
2023/12/17 10:50:29;;;;;;;30.55;14.52;;;;;;;;;;5037134;28;20523;-68
2023/12/17 10:52:56;;;;;;;29.42;15.18;;;;;;;;;;5028444;28;20488;-68
2023/12/17 10:55:23;;;;;;;26.70;13.35;;;;;;;;;;5038241;28;20429;-67
2023/12/17 10:57:57;;;;;;;27.80;13.50;;;;;;;;;;5039791;28;20583;-67
2023/12/17 11:00:26;;;;;;;28.02;12.85;;;;;;;;;;5040115;28;20486;-67
2023/12/17 11:02:56;;;;;;;32.17;12.93;;;;;;;;;;5039297;28;20532;-68
2023/12/17 11:05:23;;;;;;;27.23;13.40;;;;;;;;;;5036296;28;20433;-68
2023/12/17 11:07:51;;;;;;;28.45;14.30;;;;;;;;;;5034687;28;20443;-68
2023/12/17 11:10:18;;;;;;;30.20;13.60;;;;;;;;;;5036872;28;20436;-67
2023/12/17 11:12:46;;;;;;;47.38;11.98;;;;;;;;;;5037133;28;20429;-67
2023/12/17 11:15:13;;;;;;;27.73;12.52;;;;;;;;;;5031654;28;20429;-68
2023/12/17 11:17:42;;;;;;;25.05;11.30;;;;;;;;;;5036392;28;20460;-68
2023/12/17 11:20:13;;;;;;;24.48;10.25;;;;;;;;;;5034311;28;21065;-68
2023/12/17 11:22:40;;;;;;;25.08;9.57;;;;;;;;;;5040150;28;20445;-68
2023/12/17 11:25:11;;;;;;;20.27;9.68;;;;;;;;;;5035778;28;20532;-68
2023/12/17 11:27:39;;;;;;;32.88;9.00;;;;;;;;;;5039223;28;20514;-68
2023/12/17 11:30:25;;;;;;;23.00;9.38;;;;;;;;;;5035827;28;20429;-68
2023/12/17 11:32:53;;;;;;;21.85;9.98;;;;;;;;;;5031614;28;20435;-68
2023/12/17 11:35:21;;;;;;;22.02;11.00;;;;;;;;;;5040698;28;20440;-68
2023/12/17 11:37:48;;;;;;;17.95;9.40;;;;;;;;;;5037243;28;20433;-68
2023/12/17 11:40:16;;;;;;;18.58;10.40;;;;;;;;;;5041633;28;20517;-68
2023/12/17 11:42:54;;;;;;;20.88;12.00;;;;;;;;;;5033346;28;20431;-68
2023/12/17 11:45:32;;;;;;;20.23;11.70;;;;;;;;;;5034586;28;20436;-69
2023/12/17 11:48:09;;;;;;;20.20;10.45;;;;;;;;;;5030668;28;20439;-68
2023/12/17 11:50:41;;;;;;;17.48;9.15;;;;;;;;;;5032583;28;20427;-69
2023/12/17 11:53:09;;;;;;;15.27;8.33;;;;;;;;;;5038647;28;20524;-68
2023/12/17 11:55:49;;;;;;;18.15;10.80;;;;;;;;;;5037961;28;20538;-69
2023/12/17 11:58:17;;;;;;;22.02;10.80;;;;;;;;;;5036911;28;20430;-69
2023/12/17 12:01:04;;;;;;;23.33;12.70;;;;;;;;;;5036090;28;20438;-69
2023/12/17 12:03:32;;;;;;;22.27;11.98;;;;;;;;;;5037462;28;20536;-68
2023/12/17 12:06:03;;;;;;;21.42;11.60;;;;;;;;;;5042601;28;20516;-68
2023/12/17 12:08:34;;;;;;;16.33;8.77;;;;;;;;;;5037943;28;20425;-68
2023/12/17 12:11:02;;;;;;;17.83;10.45;;;;;;;;;;5037563;28;20433;-69
2023/12/17 12:13:36;;;;;;;17.38;9.38;;;;;;;;;;5039873;28;20931;-68
2023/12/17 12:16:03;;;;;;;14.93;8.30;;;;;;;;;;5036880;28;20430;-68
2023/12/17 12:18:30;;;;;;;12.95;7.88;;;;;;;;;;5038728;28;20427;-69
2023/12/17 12:20:58;;;;;;;15.68;7.22;;;;;;;;;;5042725;28;20984;-68
2023/12/17 12:23:25;;;;;;;10.07;6.20;;;;;;;;;;5046128;28;20456;-67
2023/12/17 12:25:59;;;;;;;10.63;5.70;;;;;;;;;;5041276;28;20518;-67
2023/12/17 12:28:28;;;;;;;10.45;5.75;;;;;;;;;;5038190;28;20909;-67
2023/12/17 12:31:07;;;;;;;10.10;6.18;;;;;;;;;;5040406;28;20777;-67
2023/12/17 12:33:35;;;;;;;11.50;6.72;;;;;;;;;;5040580;28;20432;-67
2023/12/17 12:36:07;;;;;;;14.25;6.80;;;;;;;;;;5040295;28;20760;-67
2023/12/17 12:38:34;;;;;;;11.85;6.70;;;;;;;;;;5042655;28;20429;-67
2023/12/17 12:41:09;;;;;;;14.68;6.50;;;;;;;;;;5038706;28;20430;-67
2023/12/17 12:43:39;;;;;;;14.63;7.53;;;;;;;;;;5039212;28;20434;-67
2023/12/17 12:46:07;;;;;;;14.88;7.93;;;;;;;;;;5038818;28;20458;-67
2023/12/17 12:48:36;;;;;;;16.05;8.20;;;;;;;;;;5041336;28;20500;-69
2023/12/17 12:51:04;;;;;;;15.93;8.32;;;;;;;;;;5043133;28;20437;-67
2023/12/17 12:53:32;;;;;;;16.13;8.37;;;;;;;;;;5044075;28;20921;-67
2023/12/17 12:56:00;;;;;;;13.52;8.15;;;;;;;;;;5039670;28;20439;-67
2023/12/17 12:58:27;;;;;;;19.48;8.18;;;;;;;;;;5041521;28;20428;-67
2023/12/17 13:00:54;;;;;;;17.27;7.67;;;;;;;;;;5034787;28;20456;-67
2023/12/17 13:03:21;;;;;;;16.73;8.80;;;;;;;;;;5044581;28;20508;-67
2023/12/17 13:05:53;;;;;;;14.90;8.37;;;;;;;;;;5045665;28;20426;-67
2023/12/17 13:08:20;;;;;;;18.67;7.72;;;;;;;;;;5035612;28;20430;-67
2023/12/17 13:10:48;;;;;;;15.70;8.95;;;;;;;;;;5036173;28;20437;-67
2023/12/17 13:13:15;;;;;;;19.88;9.38;;;;;;;;;;5036536;28;20431;-67
2023/12/17 13:15:42;;;;;;;16.92;9.73;;;;;;;;;;5043145;28;20433;-67
2023/12/17 13:18:09;;;;;;;28.75;9.85;;;;;;;;;;5041619;28;20780;-67
2023/12/17 13:20:37;;;;;;;20.08;10.00;;;;;;;;;;5041663;28;20438;-67
2023/12/17 13:23:05;;;;;;;22.73;9.67;;;;;;;;;;5039573;28;20601;-67
2023/12/17 13:25:33;;;;;;;19.95;9.88;;;;;;;;;;5043617;28;20508;-67
2023/12/17 13:28:00;;;;;;;18.73;10.20;;;;;;;;;;5048981;28;20466;-67
2023/12/17 13:30:29;;;;;;;24.23;10.23;;;;;;;;;;5040066;28;20430;-67
2023/12/17 13:33:03;;;;;;;19.02;9.93;;;;;;;;;;5041124;28;20931;-67
2023/12/17 13:35:31;;;;;;;22.90;9.98;;;;;;;;;;5048730;28;20520;-67
2023/12/17 13:37:58;;;;;;;23.80;10.77;;;;;;;;;;5034904;28;20429;-67
2023/12/17 13:40:26;;;;;;;44.35;20.02;;;;;;;;;;5041723;28;20558;-67
2023/12/17 13:42:53;;;;;;;42.92;18.17;;;;;;;;;;5041085;28;20949;-67
2023/12/17 13:45:20;;;;;;;25.60;12.32;;;;;;;;;;5046153;28;20487;-67
2023/12/17 13:47:47;;;;;;;29.50;11.40;;;;;;;;;;5041403;28;20524;-67
2023/12/17 13:50:18;;;;;;;26.20;10.40;;;;;;;;;;5047614;28;20452;-67
2023/12/17 13:52:45;;;;;;;28.43;10.80;;;;;;;;;;5047027;28;20426;-67
2023/12/17 13:55:12;;;;;;;27.42;10.85;;;;;;;;;;5041136;28;20434;-67
2023/12/17 13:57:40;;;;;;;26.60;10.95;;;;;;;;;;5035785;28;21268;-67
2023/12/17 14:00:08;;;;;;;22.08;10.50;;;;;;;;;;5040896;28;20433;-67
2023/12/17 14:02:35;;;;;;;28.42;11.52;;;;;;;;;;5042381;28;20438;-67
2023/12/17 14:05:03;;;;;;;37.10;10.52;;;;;;;;;;5047324;28;20525;-67
2023/12/17 14:07:38;;;;;;;31.03;10.80;;;;;;;;;;5041095;28;21005;-67
2023/12/17 14:10:05;;;;;;;28.23;10.25;;;;;;;;;;5040410;28;20434;-67
2023/12/17 14:12:32;;;;;;;35.95;10.50;;;;;;;;;;5037559;28;20421;-67
2023/12/17 14:15:00;;;;;;;21.47;9.17;;;;;;;;;;5045814;28;20453;-67
2023/12/17 14:17:27;;;;;;;22.35;10.38;;;;;;;;;;5042079;28;20508;-67
2023/12/17 14:19:54;;;;;;;22.00;11.18;;;;;;;;;;5041285;28;20442;-67
2023/12/17 14:22:21;;;;;;;59.33;10.43;;;;;;;;;;5039602;28;20429;-67
2023/12/17 14:24:50;;;;;;;23.20;10.35;;;;;;;;;;5038927;28;20433;-67